Aviation Digital Data Service (ADDS)

Output produced by METARs form (1106 UTC 24 November 2017)
found at http://www.aviationweather.gov/adds/metars/
 
KGED 241054Z AUTO 00000KT 10SM CLR M03/M05 A3010 RMK AO2 SLP192 I1000 T10281050